Time;durP1;ratioP1;P1;durP2;ratioP2;P2;SDS_P1;SDS_P2;PMS_P1;PMS_P2;Temp;Humidity;BMP_temperature;BMP_pressure;BME280_temperature;BME280_humidity;BME280_pressure;Samples;Min_cycle;Max_cycle;Signal;HPM_P1;HPM_P2
2024/03/13 00:01:28;;;;;;;7.30;4.28;;;;;;;21.24;47.35;100926.96;2288618;76;51093;-83
2024/03/13 00:04:47;;;;;;;5.67;4.42;;;;;;;21.25;47.32;100929.17;2340208;76;50793;-83
2024/03/13 00:07:49;;;;;;;5.03;4.03;;;;;;;21.24;47.30;100923.45;2340302;76;51271;-83
2024/03/13 00:10:52;;;;;;;9.45;4.90;;;;;;;21.24;47.35;100923.45;2315821;76;50991;-82
2024/03/13 00:13:55;;;;;;;6.97;4.45;;;;;;;21.24;47.35;100924.80;2315723;76;50718;-82
2024/03/13 00:16:57;;;;;;;7.85;4.30;;;;;;;21.22;47.37;100922.31;2340137;76;51950;-83
2024/03/13 00:19:59;;;;;;;7.53;4.08;;;;;;;21.24;47.22;100931.52;2340317;76;51483;-82
2024/03/13 00:23:05;;;;;;;7.22;3.80;;;;;;;21.24;47.36;100931.52;2340354;74;50615;-82
2024/03/13 00:26:07;;;;;;;6.97;4.05;;;;;;;21.23;47.36;100932.56;2290937;76;50121;-83
2024/03/13 00:29:10;;;;;;;4.70;3.65;;;;;;;21.23;47.28;100933.39;2340489;76;50451;-83
2024/03/13 00:32:15;;;;;;;6.67;3.70;;;;;;;21.24;47.31;100936.91;2340496;76;51471;-83
2024/03/13 00:35:17;;;;;;;5.37;3.95;;;;;;;21.22;47.26;100930.39;2290542;76;50975;-83
2024/03/13 00:38:20;;;;;;;5.42;3.87;;;;;;;21.22;47.25;100937.11;2340280;74;50630;-83
2024/03/13 00:41:22;;;;;;;7.92;3.95;;;;;;;21.22;47.24;100930.88;2340221;76;50754;-82
2024/03/13 00:44:25;;;;;;;6.25;4.03;;;;;;;21.22;47.21;100933.56;2339916;76;51481;-81
2024/03/13 00:47:27;;;;;;;6.67;3.98;;;;;;;21.21;47.21;100933.27;2339580;76;51174;-82
2024/03/13 00:50:29;;;;;;;7.90;3.95;;;;;;;21.21;47.19;100941.33;2315063;76;49435;-81
2024/03/13 00:53:31;;;;;;;6.20;3.85;;;;;;;21.22;47.14;100942.98;2339833;76;50347;-82
2024/03/13 00:56:34;;;;;;;4.75;3.70;;;;;;;21.20;47.17;100940.50;2315369;76;50867;-81
2024/03/13 00:59:36;;;;;;;6.42;4.15;;;;;;;21.21;47.16;100938.64;2315116;76;50854;-82
2024/03/13 01:02:40;;;;;;;4.85;3.52;;;;;;;21.20;47.14;100939.16;2339903;75;50693;-82
2024/03/13 01:05:43;;;;;;;6.35;3.80;;;;;;;21.19;47.10;100936.65;2339870;76;50853;-82
2024/03/13 01:08:46;;;;;;;7.00;4.08;;;;;;;21.19;47.09;100935.30;2339784;75;50823;-82
2024/03/13 01:11:48;;;;;;;4.80;3.90;;;;;;;21.19;47.09;100929.92;2339798;76;50656;-81
2024/03/13 01:14:50;;;;;;;4.83;3.50;;;;;;;21.20;47.08;100928.91;2288155;76;49608;-82
2024/03/13 01:17:53;;;;;;;4.85;3.42;;;;;;;21.18;47.12;100930.44;2313922;76;50636;-82
2024/03/13 01:20:55;;;;;;;5.87;3.90;;;;;;;21.18;47.07;100937.17;2339633;76;50976;-83
2024/03/13 01:23:57;;;;;;;5.90;3.72;;;;;;;21.18;47.07;100930.96;2314925;76;50025;-83
2024/03/13 01:27:00;;;;;;;5.67;3.70;;;;;;;21.18;47.07;100933.66;2339612;76;51076;-83
2024/03/13 01:30:03;;;;;;;4.08;3.42;;;;;;;21.18;47.07;100943.07;2314975;76;51460;-83
2024/03/13 01:33:06;;;;;;;6.55;3.98;;;;;;;21.18;47.02;100939.86;2287950;76;50958;-82
2024/03/13 01:36:09;;;;;;;7.55;4.05;;;;;;;21.18;47.02;100933.13;2339584;76;52491;-82
2024/03/13 01:39:12;;;;;;;4.95;3.80;;;;;;;21.17;46.98;100934.17;2315286;76;50678;-82
2024/03/13 01:56:15;;;;;;;4.62;3.37;;;;;;;21.18;46.96;100926.92;2339880;76;24329;-82
2024/03/13 01:59:23;;;;;;;4.78;3.35;;;;;;;21.18;46.97;100932.30;2313210;76;22380;-81
2024/03/13 02:02:24;;;;;;;5.10;3.40;;;;;;;21.17;47.00;100925.24;2339823;75;22356;-81
2024/03/13 02:05:27;;;;;;;3.62;3.27;;;;;;;21.17;46.93;100926.09;2339319;76;51284;-81
2024/03/13 02:08:29;;;;;;;3.95;3.08;;;;;;;21.16;46.98;100929.80;2315096;76;51164;-81
2024/03/13 02:11:31;;;;;;;5.53;3.83;;;;;;;21.17;46.92;100927.93;2339580;75;51519;-82
2024/03/13 02:14:33;;;;;;;6.55;3.30;;;;;;;21.17;46.93;100929.28;2339431;76;51400;-82
2024/03/13 02:17:38;;;;;;;4.17;3.27;;;;;;;21.18;46.88;100929.62;2289138;76;50410;-82
2024/03/13 02:20:41;;;;;;;5.05;3.67;;;;;;;21.16;46.86;100929.80;2339712;76;50768;-82
2024/03/13 02:23:43;;;;;;;5.37;3.50;;;;;;;21.17;46.83;100931.97;2314881;76;50930;-82
2024/03/13 02:26:45;;;;;;;4.67;3.50;;;;;;;21.17;46.79;100925.24;2339477;75;50705;-82
2024/03/13 02:29:51;;;;;;;3.80;3.37;;;;;;;21.17;46.74;100922.55;2339582;76;51242;-82
2024/03/13 02:32:51;;;;;;;6.25;3.85;;;;;;;21.17;46.71;100921.20;2339366;75;22368;-82
2024/03/13 02:35:54;;;;;;;4.45;3.70;;;;;;;21.16;46.70;100918.20;2339498;76;50748;-82
2024/03/13 02:38:56;;;;;;;5.90;3.55;;;;;;;21.15;46.65;100922.77;2313569;76;51459;-82
2024/03/13 02:41:59;;;;;;;5.60;3.72;;;;;;;21.16;46.65;100923.06;2313469;76;51945;-82
2024/03/13 02:45:02;;;;;;;4.45;3.20;;;;;;;21.17;46.65;100922.55;2313378;76;50635;-82
2024/03/13 02:48:05;;;;;;;4.00;3.47;;;;;;;21.17;46.65;100927.44;2314718;76;49630;-82
2024/03/13 02:51:11;;;;;;;6.22;3.92;;;;;;;21.16;46.63;100919.55;2289763;76;51159;-82
2024/03/13 02:54:13;;;;;;;8.03;3.75;;;;;;;21.17;46.60;100919.86;2339793;76;50869;-82
2024/03/13 02:57:17;;;;;;;6.35;3.83;;;;;;;21.17;46.60;100926.59;2314833;76;51014;-82
2024/03/13 03:00:19;;;;;;;4.70;3.80;;;;;;;21.16;46.58;100920.38;2339523;76;51163;-82
2024/03/13 03:03:22;;;;;;;5.30;3.52;;;;;;;21.17;46.55;100925.24;2289140;76;51861;-82
2024/03/13 03:06:24;;;;;;;5.35;3.60;;;;;;;21.17;46.57;100914.48;2315156;76;50974;-82
2024/03/13 03:09:26;;;;;;;6.10;3.70;;;;;;;21.17;46.53;100923.89;2339638;76;50715;-82
2024/03/13 03:12:29;;;;;;;6.33;3.60;;;;;;;21.16;46.51;100919.55;2339634;76;51497;-82
2024/03/13 03:15:34;;;;;;;6.62;3.80;;;;;;;21.16;46.47;100917.69;2289098;76;50635;-82
2024/03/13 03:18:35;;;;;;;5.12;3.85;;;;;;;21.17;46.49;100922.55;2339706;76;22383;-82
2024/03/13 03:21:37;;;;;;;4.67;3.37;;;;;;;21.17;46.50;100922.55;2314961;76;50993;-82
2024/03/13 03:24:40;;;;;;;4.35;3.47;;;;;;;21.17;46.55;100929.28;2339523;76;51222;-82
2024/03/13 03:27:42;;;;;;;5.17;3.77;;;;;;;21.18;46.54;100926.92;2314840;76;51505;-82
2024/03/13 03:30:46;;;;;;;4.55;3.62;;;;;;;21.18;46.53;100924.23;2339553;75;51539;-82
2024/03/13 03:33:48;;;;;;;5.75;3.75;;;;;;;21.17;46.46;100923.41;2315947;76;25859;-82
2024/03/13 03:36:50;;;;;;;4.08;3.47;;;;;;;21.17;46.45;100927.93;2314784;76;49569;-82
2024/03/13 03:39:52;;;;;;;4.08;3.58;;;;;;;21.17;46.46;100923.41;2339496;76;50360;-82
2024/03/13 03:42:57;;;;;;;4.45;3.60;;;;;;;21.17;46.44;100923.89;2339430;76;50713;-82
2024/03/13 03:45:59;;;;;;;4.50;3.83;;;;;;;21.16;46.45;100924.41;2339809;75;22762;-82
2024/03/13 03:49:01;;;;;;;4.67;3.58;;;;;;;21.17;46.43;100920.72;2315009;76;50748;-82
2024/03/13 03:52:03;;;;;;;4.55;3.67;;;;;;;21.17;46.43;100924.75;2339565;76;51508;-83
2024/03/13 03:55:06;;;;;;;6.05;3.92;;;;;;;21.18;46.44;100922.89;2289052;76;51340;-82
2024/03/13 03:58:08;;;;;;;4.90;3.55;;;;;;;21.17;46.41;100924.75;2289238;76;51405;-82
2024/03/13 04:01:10;;;;;;;4.25;3.75;;;;;;;21.17;46.43;100918.52;2314771;76;50155;-82
2024/03/13 04:04:13;;;;;;;4.53;3.80;;;;;;;21.17;46.37;100918.52;2339503;76;51522;-82
2024/03/13 04:07:16;;;;;;;4.03;3.30;;;;;;;21.17;46.42;100917.17;2339419;76;51556;-82
2024/03/13 04:10:19;;;;;;;5.53;3.95;;;;;;;21.17;46.40;100911.78;2314792;76;49642;-82
2024/03/13 04:13:22;;;;;;;3.87;3.08;;;;;;;21.16;46.39;100919.55;2339339;76;51532;-82
2024/03/13 04:16:24;;;;;;;5.92;3.67;;;;;;;21.17;46.37;100911.78;2339218;76;51541;-82
2024/03/13 04:19:27;;;;;;;4.72;3.80;;;;;;;21.17;46.40;100918.52;2339400;76;50429;-82
2024/03/13 04:22:31;;;;;;;4.47;3.83;;;;;;;21.15;46.38;100926.80;2339521;76;51833;-82
2024/03/13 04:25:37;;;;;;;4.67;3.85;;;;;;;21.15;46.39;100925.97;2314737;76;49619;-82
2024/03/13 04:28:42;;;;;;;4.92;3.67;;;;;;;21.15;46.40;100934.05;2315584;76;22389;-82
2024/03/13 04:31:42;;;;;;;4.67;3.75;;;;;;;21.14;46.41;100929.15;2339619;76;22407;-85
2024/03/13 04:34:45;;;;;;;4.30;3.62;;;;;;;21.15;46.41;100932.70;2314777;76;50005;-82
2024/03/13 04:37:49;;;;;;;4.87;3.85;;;;;;;21.15;46.39;100938.91;2339338;76;50738;-82
2024/03/13 04:40:51;;;;;;;4.33;3.52;;;;;;;21.15;46.44;100938.08;2313897;76;23355;-82
2024/03/13 04:43:53;;;;;;;5.17;3.95;;;;;;;21.15;46.42;100940.77;2289449;76;51914;-82
2024/03/13 04:46:55;;;;;;;4.53;3.62;;;;;;;21.15;46.42;100942.95;2339585;76;50800;-82
2024/03/13 04:49:58;;;;;;;4.58;3.33;;;;;;;21.14;46.44;100942.61;2315082;76;50978;-81
2024/03/13 04:53:00;;;;;;;3.90;3.52;;;;;;;21.15;46.46;100939.42;2289384;76;50412;-81
2024/03/13 04:56:06;;;;;;;4.75;3.72;;;;;;;21.15;46.47;100936.73;2339292;76;50618;-81
2024/03/13 04:59:06;;;;;;;4.85;3.42;;;;;;;21.14;46.48;100942.61;2313267;76;23111;-81
2024/03/13 05:02:08;;;;;;;3.75;3.40;;;;;;;21.15;46.45;100943.47;2339722;75;50589;-82
2024/03/13 05:05:14;;;;;;;4.92;4.20;;;;;;;21.15;46.44;100946.16;2339610;75;51476;-82
2024/03/13 05:08:16;;;;;;;3.98;3.58;;;;;;;21.14;46.40;100943.13;2315355;76;51927;-83
2024/03/13 05:11:19;;;;;;;3.62;3.25;;;;;;;21.14;46.37;100945.81;2339742;76;51451;-83
2024/03/13 05:14:21;;;;;;;5.20;3.72;;;;;;;21.13;46.36;100958.44;2315314;76;50985;-83
2024/03/13 05:17:23;;;;;;;4.78;3.75;;;;;;;21.13;46.32;100948.20;2339824;76;50769;-84
2024/03/13 05:20:27;;;;;;;4.80;3.52;;;;;;;21.13;46.34;100953.58;2339775;76;51616;-82
2024/03/13 05:23:29;;;;;;;5.20;3.60;;;;;;;21.14;46.35;100955.23;2340243;76;22386;-82
2024/03/13 05:26:33;;;;;;;4.08;3.60;;;;;;;21.13;46.35;100946.85;2313583;76;50727;-82
2024/03/13 05:29:35;;;;;;;5.08;3.75;;;;;;;21.13;46.40;100950.89;2340048;75;22783;-82
2024/03/13 05:32:37;;;;;;;4.42;3.65;;;;;;;21.13;46.36;100957.09;2339594;76;50595;-82
2024/03/13 05:35:40;;;;;;;5.05;3.77;;;;;;;21.13;46.44;100954.92;2339709;76;50241;-82
2024/03/13 05:38:42;;;;;;;5.40;4.00;;;;;;;21.13;46.37;100948.20;2263512;76;50985;-82
2024/03/13 05:41:45;;;;;;;4.97;4.03;;;;;;;21.12;46.35;100951.89;2339808;76;50170;-82
2024/03/13 05:44:47;;;;;;;4.67;3.52;;;;;;;21.12;46.35;100954.59;2340155;76;51552;-82
2024/03/13 05:47:49;;;;;;;4.50;3.55;;;;;;;21.12;46.31;100956.79;2289755;76;50989;-82
2024/03/13 05:50:52;;;;;;;4.80;4.03;;;;;;;21.12;46.34;100958.63;2340183;76;50383;-82
2024/03/13 05:53:54;;;;;;;8.25;4.20;;;;;;;21.12;46.27;100955.45;2340129;76;50185;-82
2024/03/13 05:56:57;;;;;;;8.30;4.03;;;;;;;21.11;46.31;100963.17;2339692;74;50758;-82
2024/03/13 06:00:03;;;;;;;6.35;3.83;;;;;;;21.11;46.65;100969.91;2339792;76;50088;-82
2024/03/13 06:03:03;;;;;;;17.00;5.33;;;;;;;21.13;47.05;100962.48;2340016;76;23313;-83
2024/03/13 06:06:05;;;;;;;12.10;4.70;;;;;;;21.14;47.08;100971.38;2289598;76;50163;-82
2024/03/13 06:09:08;;;;;;;10.25;4.00;;;;;;;21.14;46.97;100974.06;2315395;76;50466;-80
2024/03/13 06:12:10;;;;;;;17.15;4.80;;;;;;;21.15;47.08;100973.06;2314841;76;50311;-80
2024/03/13 06:15:15;;;;;;;11.80;4.50;;;;;;;21.18;47.00;100968.64;2313909;76;51424;-78
2024/03/13 06:18:18;;;;;;;11.63;4.65;;;;;;;21.17;46.99;100973.19;2314639;76;51518;-78
2024/03/13 06:21:20;;;;;;;8.58;4.60;;;;;;;21.19;47.04;100977.02;2340543;76;51472;-80
2024/03/13 06:24:32;;;;;;;11.12;4.58;;;;;;;21.18;47.09;100980.74;2290790;76;50666;-80
2024/03/13 06:27:34;;;;;;;14.07;4.72;;;;;;;21.19;47.26;100987.27;2315555;76;50160;-80
2024/03/13 06:30:37;;;;;;;12.15;4.28;;;;;;;21.19;47.32;100985.09;2340669;76;51457;-79
2024/03/13 06:33:40;;;;;;;12.35;5.03;;;;;;;21.20;47.35;100988.95;2340360;74;50256;-84
2024/03/13 06:36:42;;;;;;;8.93;4.72;;;;;;;21.20;47.36;101004.27;2316381;76;49559;-84
2024/03/13 06:39:44;;;;;;;16.50;4.90;;;;;;;21.20;47.36;100994.33;2341433;76;50265;-83
2024/03/13 06:42:46;;;;;;;10.98;5.53;;;;;;;21.21;47.31;100993.29;2341579;76;50794;-83
2024/03/13 06:45:50;;;;;;;12.50;6.15;;;;;;;21.20;47.24;101001.06;2341276;74;51728;-83
2024/03/13 06:48:53;;;;;;;12.73;8.25;;;;;;;21.20;47.19;100998.89;2341109;76;50806;-84
2024/03/13 06:51:55;;;;;;;11.83;6.20;;;;;;;21.19;47.08;100995.85;2315574;76;50224;-83
2024/03/13 06:54:57;;;;;;;16.27;6.50;;;;;;;21.20;46.95;101005.61;2339714;76;50746;-84
2024/03/13 06:57:59;;;;;;;16.40;6.00;;;;;;;21.19;46.77;101011.48;2289257;76;50320;-83
2024/03/13 07:01:01;;;;;;;18.15;5.90;;;;;;;21.18;46.75;101003.09;2315124;76;50134;-83
2024/03/13 07:04:04;;;;;;;12.05;6.37;;;;;;;21.19;46.62;101007.97;2339769;75;51530;-82
2024/03/13 07:07:06;;;;;;;10.68;5.83;;;;;;;21.19;46.58;101011.48;2289693;76;50453;-83
2024/03/13 07:10:12;;;;;;;14.38;6.37;;;;;;;21.19;46.68;101014.69;2289464;76;50410;-82
2024/03/13 07:13:14;;;;;;;10.43;6.30;;;;;;;21.19;46.67;101019.55;2291283;76;50827;-84
2024/03/13 07:16:16;;;;;;;12.90;6.33;;;;;;;21.19;46.66;101020.91;2288120;76;50987;-83
2024/03/13 07:19:19;;;;;;;11.63;5.17;;;;;;;21.20;46.67;101022.59;2314052;76;51394;-83
2024/03/13 07:22:22;;;;;;;10.00;5.87;;;;;;;21.21;46.65;101022.89;2339972;75;50744;-82
2024/03/13 07:25:24;;;;;;;12.80;5.10;;;;;;;21.21;46.66;101026.94;2264763;76;49795;-81
2024/03/13 07:28:26;;;;;;;6.92;4.90;;;;;;;21.22;46.64;101025.06;2340019;76;50899;-82
2024/03/13 07:31:29;;;;;;;9.15;5.08;;;;;;;21.22;46.62;101017.00;2340107;76;50953;-82
2024/03/13 07:34:32;;;;;;;11.83;5.08;;;;;;;21.24;46.60;101020.33;2315949;76;51511;-83
2024/03/13 07:37:34;;;;;;;11.22;5.05;;;;;;;21.24;46.59;101028.41;2339774;76;50867;-82
2024/03/13 07:40:42;;;;;;;9.95;5.37;;;;;;;21.24;46.61;101028.41;2315199;76;50025;-82
2024/03/13 07:43:41;;;;;;;11.20;4.70;;;;;;;21.24;46.57;101033.79;2315917;76;22422;-82
2024/03/13 07:46:44;;;;;;;9.05;4.95;;;;;;;21.25;46.54;101034.13;2340067;76;50210;-81
2024/03/13 07:49:46;;;;;;;14.20;5.20;;;;;;;21.27;46.52;101037.44;2315382;76;49576;-82
2024/03/13 07:52:48;;;;;;;11.53;5.25;;;;;;;21.27;46.51;101036.09;2340409;76;51152;-80
2024/03/13 07:55:51;;;;;;;9.53;4.78;;;;;;;21.26;46.52;101029.88;2339833;76;51518;-83
2024/03/13 07:58:53;;;;;;;8.53;5.40;;;;;;;21.26;46.50;101036.61;2340479;76;51075;-81
2024/03/13 08:01:55;;;;;;;8.00;5.28;;;;;;;21.28;46.44;101045.85;2339841;76;50420;-82
2024/03/13 08:04:59;;;;;;;10.88;5.30;;;;;;;21.28;46.40;101039.12;2289875;76;51098;-81
2024/03/13 08:08:02;;;;;;;10.05;5.47;;;;;;;21.29;46.38;101044.81;2340426;75;25908;-81
2024/03/13 08:11:04;;;;;;;10.43;5.37;;;;;;;21.31;46.38;101044.12;2315656;76;52475;-82
2024/03/13 08:14:06;;;;;;;9.43;6.25;;;;;;;21.33;46.27;101044.77;2315007;76;52307;-81
2024/03/13 08:17:09;;;;;;;11.83;6.03;;;;;;;21.36;45.74;101049.76;2339660;76;51457;-82
2024/03/13 08:20:17;;;;;;;11.53;6.40;;;;;;;21.37;45.98;101048.72;2315502;76;49282;-82
2024/03/13 08:23:19;;;;;;;9.95;5.83;;;;;;;21.37;45.85;101046.03;2340040;76;50418;-81
2024/03/13 08:26:21;;;;;;;8.30;5.75;;;;;;;21.39;45.85;101046.71;2313739;76;51406;-81
2024/03/13 08:29:23;;;;;;;8.80;5.95;;;;;;;21.40;45.83;101050.23;2315452;76;49684;-82
2024/03/13 08:32:25;;;;;;;10.00;5.45;;;;;;;21.40;45.80;101048.39;2340202;76;50251;-81
2024/03/13 08:35:31;;;;;;;8.63;5.00;;;;;;;21.43;45.83;101048.00;2340054;76;50736;-81
2024/03/13 08:38:33;;;;;;;10.95;5.42;;;;;;;21.46;45.75;101053.52;2290474;76;49597;-81
2024/03/13 08:41:35;;;;;;;7.45;4.95;;;;;;;21.49;45.81;101049.09;2340193;74;50513;-81
2024/03/13 08:44:38;;;;;;;8.13;5.55;;;;;;;21.52;45.65;101048.18;2340126;76;50739;-81
2024/03/13 08:47:40;;;;;;;9.20;5.58;;;;;;;21.53;45.70;101041.79;2340320;75;51443;-82
2024/03/13 08:50:42;;;;;;;9.95;5.30;;;;;;;21.57;45.69;101049.47;2340242;76;50751;-80
2024/03/13 08:53:45;;;;;;;6.80;4.75;;;;;;;21.58;45.64;101041.70;2289773;76;51521;-81
2024/03/13 08:56:47;;;;;;;9.98;5.00;;;;;;;21.60;45.61;101041.00;2314169;76;51251;-82
2024/03/13 08:59:49;;;;;;;7.70;4.47;;;;;;;21.61;45.60;101046.73;2340316;76;51593;-81
2024/03/13 09:02:55;;;;;;;8.85;5.15;;;;;;;21.64;45.58;101042.30;2315225;76;50091;-82
2024/03/13 09:05:57;;;;;;;9.10;4.87;;;;;;;21.65;45.47;101036.70;2339854;76;22414;-80
2024/03/13 09:08:59;;;;;;;8.50;4.62;;;;;;;21.67;45.45;101037.86;2340666;76;50837;-81
2024/03/13 09:12:02;;;;;;;10.32;4.95;;;;;;;21.70;45.39;101036.13;2340631;76;51479;-82
2024/03/13 09:15:05;;;;;;;6.65;4.15;;;;;;;21.70;45.39;101034.77;2340525;76;52670;-83
2024/03/13 09:18:08;;;;;;;7.50;5.12;;;;;;;21.70;45.53;101039.64;2266013;76;52673;-83
2024/03/13 09:21:12;;;;;;;6.12;4.25;;;;;;;21.75;45.41;101039.89;2340503;76;50491;-81
2024/03/13 09:24:15;;;;;;;5.65;4.12;;;;;;;21.73;45.43;101046.01;2340650;76;51009;-83
2024/03/13 09:27:17;;;;;;;7.35;4.45;;;;;;;21.78;45.40;101043.23;2289004;76;49699;-83
2024/03/13 09:30:19;;;;;;;7.33;4.65;;;;;;;21.79;45.38;101046.26;2340770;74;50369;-82
2024/03/13 09:33:22;;;;;;;5.30;4.10;;;;;;;21.82;45.35;101041.83;2340996;76;50608;-83
2024/03/13 09:36:24;;;;;;;8.43;4.42;;;;;;;21.80;45.41;101040.66;2314700;76;50256;-83
2024/03/13 09:39:26;;;;;;;5.47;4.30;;;;;;;21.84;45.27;101037.91;2340423;76;51689;-83
2024/03/13 09:42:29;;;;;;;4.97;3.90;;;;;;;21.86;45.22;101035.86;2315916;76;49294;-83
2024/03/13 09:45:31;;;;;;;7.22;4.28;;;;;;;21.86;45.25;101026.92;2340631;75;51473;-82
2024/03/13 09:48:37;;;;;;;7.03;4.53;;;;;;;21.88;45.21;101026.22;2316397;76;50767;-82
2024/03/13 09:51:39;;;;;;;8.28;4.17;;;;;;;21.90;45.15;101028.20;2315864;76;50723;-83
2024/03/13 09:54:46;;;;;;;7.67;4.55;;;;;;;21.92;45.10;101028.33;2340584;76;51510;-83
2024/03/13 09:57:48;;;;;;;7.00;4.10;;;;;;;21.93;45.08;101028.63;2339121;76;22360;-83
2024/03/13 10:00:52;;;;;;;5.72;4.55;;;;;;;21.91;45.13;101022.63;2339930;76;51515;-82
2024/03/13 10:04:00;;;;;;;7.83;4.53;;;;;;;21.90;45.12;101019.60;2340026;76;51646;-83
2024/03/13 10:07:00;;;;;;;6.55;4.60;;;;;;;21.91;45.10;101023.13;2315280;76;22361;-82
2024/03/13 10:10:03;;;;;;;6.47;4.10;;;;;;;21.93;44.97;101014.33;2314870;76;50103;-82
2024/03/13 10:13:05;;;;;;;6.72;4.83;;;;;;;21.95;44.95;101013.63;2339696;76;50945;-81
2024/03/13 10:16:08;;;;;;;8.18;4.33;;;;;;;21.95;44.95;101018.50;2339679;76;51498;-82
2024/03/13 10:19:13;;;;;;;5.50;3.83;;;;;;;22.00;44.90;101019.78;2339787;76;50855;-82
2024/03/13 10:22:16;;;;;;;6.45;4.10;;;;;;;22.00;44.95;101020.61;2315395;76;51623;-82
2024/03/13 10:25:19;;;;;;;6.12;4.35;;;;;;;22.01;44.92;101021.44;2315054;76;50118;-82
2024/03/13 10:28:23;;;;;;;7.00;3.95;;;;;;;22.01;44.89;101016.87;2339905;76;51102;-83
2024/03/13 10:31:25;;;;;;;6.00;4.25;;;;;;;22.03;44.92;101011.30;2340124;76;22340;-83
2024/03/13 10:34:27;;;;;;;5.72;4.10;;;;;;;22.03;44.84;101005.91;2315331;76;51043;-82
2024/03/13 10:37:29;;;;;;;5.40;4.17;;;;;;;22.03;44.80;101000.52;2339994;76;52330;-82
2024/03/13 10:40:31;;;;;;;5.28;3.80;;;;;;;22.04;44.88;100995.44;2339873;76;50731;-82
2024/03/13 10:43:34;;;;;;;6.70;3.90;;;;;;;22.06;44.78;100989.34;2315503;76;51636;-82
2024/03/13 10:46:37;;;;;;;6.62;4.08;;;;;;;22.06;44.76;100992.03;2314025;76;51867;-81
2024/03/13 10:49:39;;;;;;;5.30;4.15;;;;;;;22.05;44.78;100987.69;2315046;76;51061;-83
2024/03/13 10:52:41;;;;;;;6.10;4.22;;;;;;;22.06;44.74;100983.43;2315250;76;51482;-81
2024/03/13 10:55:43;;;;;;;6.35;4.28;;;;;;;22.08;44.61;100978.69;2340020;76;50418;-81
2024/03/13 10:58:46;;;;;;;4.60;3.60;;;;;;;22.07;44.71;100982.94;2315076;76;49586;-82
2024/03/13 11:01:52;;;;;;;5.10;4.03;;;;;;;22.05;44.81;100985.82;2339828;76;51278;-82
2024/03/13 11:04:52;;;;;;;5.25;3.98;;;;;;;22.06;44.63;100981.26;2339827;76;22382;-82
2024/03/13 11:07:55;;;;;;;5.50;4.05;;;;;;;22.04;44.79;100980.62;2339709;76;52313;-83
2024/03/13 11:10:57;;;;;;;7.17;3.95;;;;;;;22.04;44.74;100982.82;2339724;76;50680;-82
2024/03/13 11:13:59;;;;;;;5.45;4.28;;;;;;;22.05;44.66;100985.00;2314953;76;51010;-82
2024/03/13 11:17:03;;;;;;;5.65;4.20;;;;;;;22.04;44.63;100979.27;2339649;76;51291;-80
2024/03/13 11:20:08;;;;;;;5.47;4.05;;;;;;;22.04;44.62;100977.92;2339867;76;51034;-82
2024/03/13 11:23:19;;;;;;;4.70;3.72;;;;;;;22.01;44.65;100971.06;2277575;76;50962;-80
2024/03/13 11:26:21;;;;;;;6.75;4.22;;;;;;;22.02;44.67;100974.09;2323661;76;52006;-82
2024/03/13 11:29:27;;;;;;;5.17;3.72;;;;;;;22.04;44.62;100972.53;2339816;76;50030;-81
2024/03/13 11:32:30;;;;;;;3.70;3.27;;;;;;;21.99;44.58;100977.19;2339798;76;52413;-80
2024/03/13 11:35:32;;;;;;;4.65;3.80;;;;;;;21.99;44.64;100977.69;2339774;76;51589;-81
2024/03/13 11:38:34;;;;;;;4.50;4.00;;;;;;;21.95;44.71;100970.00;2315177;76;50133;-83
2024/03/13 11:41:36;;;;;;;5.60;4.33;;;;;;;21.93;44.69;100972.05;2339859;76;51502;-82
2024/03/13 11:44:45;;;;;;;7.08;4.10;;;;;;;21.92;44.72;100977.14;2315323;76;51080;-82
2024/03/13 11:47:57;;;;;;;4.85;3.70;;;;;;;21.91;44.72;100971.44;2314985;76;49528;-81
2024/03/13 11:51:08;;;;;;;4.35;3.77;;;;;;;21.90;44.73;100974.32;2314869;76;22453;-81
2024/03/13 11:54:13;;;;;;;4.75;3.67;;;;;;;21.88;44.68;100974.51;2314134;76;50783;-82
2024/03/13 11:57:16;;;;;;;5.37;3.95;;;;;;;21.87;44.64;100972.85;2315338;76;50465;-82
2024/03/13 12:00:21;;;;;;;4.72;3.98;;;;;;;21.87;44.60;100970.16;2339906;76;52436;-80
2024/03/13 12:03:42;;;;;;;5.08;4.00;;;;;;;21.86;44.65;100963.13;2313851;76;50107;-82
2024/03/13 12:06:41;;;;;;;4.55;3.75;;;;;;;21.84;44.43;100956.27;2315030;76;22381;-82
2024/03/13 12:09:44;;;;;;;4.35;3.95;;;;;;;21.83;44.49;100955.41;2339954;76;50968;-82
2024/03/13 12:12:46;;;;;;;4.65;3.80;;;;;;;21.82;44.51;100956.45;2288147;76;51366;-82
2024/03/13 12:15:49;;;;;;;4.45;3.92;;;;;;;21.83;44.48;100947.33;2313854;76;51677;-83
2024/03/13 12:18:54;;;;;;;6.15;3.70;;;;;;;21.84;44.46;100953.05;2339755;76;50713;-83
2024/03/13 12:21:57;;;;;;;7.92;4.20;;;;;;;21.84;44.46;100934.19;2290792;76;50468;-82
2024/03/13 12:24:59;;;;;;;4.35;3.72;;;;;;;21.84;44.32;100938.23;2339771;76;51535;-83
2024/03/13 12:28:01;;;;;;;4.35;3.95;;;;;;;21.85;44.29;100941.75;2315183;76;51090;-83
2024/03/13 12:31:04;;;;;;;4.92;4.00;;;;;;;21.84;44.34;100929.33;2315203;76;51483;-83
2024/03/13 12:34:07;;;;;;;4.30;3.75;;;;;;;21.84;44.40;100923.42;2313707;76;50742;-82
2024/03/13 12:37:15;;;;;;;5.05;4.05;;;;;;;21.85;44.32;100925.06;2315061;76;50905;-81
2024/03/13 12:40:18;;;;;;;4.70;3.60;;;;;;;21.87;43.99;100920.84;2339619;76;50767;-82
2024/03/13 12:43:20;;;;;;;6.42;4.20;;;;;;;21.89;43.96;100918.27;2313712;76;50023;-83
2024/03/13 12:46:22;;;;;;;4.20;3.80;;;;;;;21.88;44.07;100911.20;2339684;76;50766;-83
2024/03/13 12:49:24;;;;;;;4.58;3.77;;;;;;;21.86;44.31;100907.89;2315217;76;51112;-82
2024/03/13 12:52:30;;;;;;;4.08;3.50;;;;;;;21.87;43.91;100909.55;2339851;76;52179;-83
2024/03/13 12:55:33;;;;;;;4.62;3.95;;;;;;;21.88;44.02;100913.06;2289708;76;50103;-82
2024/03/13 12:58:36;;;;;;;5.45;3.77;;;;;;;21.91;43.51;100912.66;2339823;76;51905;-83
2024/03/13 13:01:38;;;;;;;3.08;2.77;;;;;;;21.92;43.59;100909.78;2314985;76;51798;-82
2024/03/13 13:04:44;;;;;;;4.00;3.30;;;;;;;21.88;43.97;100915.23;2315118;76;51501;-82
2024/03/13 13:07:51;;;;;;;4.85;4.10;;;;;;;21.88;43.87;100911.72;2339759;76;22306;-82
2024/03/13 13:10:55;;;;;;;4.67;3.90;;;;;;;21.85;43.99;100905.39;2289523;76;51489;-81
2024/03/13 13:13:58;;;;;;;4.80;3.98;;;;;;;21.86;43.62;100907.89;2339784;76;50865;-82
2024/03/13 13:17:00;;;;;;;4.00;3.20;;;;;;;21.84;44.10;100899.17;2315239;76;50245;-82
2024/03/13 13:20:07;;;;;;;4.37;3.42;;;;;;;21.83;44.16;100906.92;2339817;76;51498;-83
2024/03/13 13:23:07;;;;;;;4.75;4.28;;;;;;;21.82;44.14;100899.88;2313712;76;22320;-82
2024/03/13 13:26:09;;;;;;;3.33;3.02;;;;;;;21.82;43.82;100899.05;2314812;76;50529;-81
2024/03/13 13:29:13;;;;;;;4.53;3.60;;;;;;;21.78;44.54;100889.70;2339590;76;51447;-81
2024/03/13 13:32:15;;;;;;;4.60;3.40;;;;;;;21.77;44.72;100884.00;2339384;76;50761;-81
2024/03/13 13:35:17;;;;;;;3.92;3.52;;;;;;;21.75;44.60;100882.84;2339566;76;51472;-81
2024/03/13 13:38:23;;;;;;;4.45;3.72;;;;;;;21.74;44.54;100883.89;2339581;76;50775;-82
2024/03/13 13:41:23;;;;;;;3.60;3.15;;;;;;;21.74;44.58;100883.89;2339789;76;22358;-82
2024/03/13 13:44:25;;;;;;;3.67;3.35;;;;;;;21.74;44.63;100875.80;2339590;76;50640;-82
2024/03/13 13:47:27;;;;;;;3.77;3.37;;;;;;;21.73;44.51;100872.77;2314730;76;50848;-81
2024/03/13 13:50:30;;;;;;;4.12;3.65;;;;;;;21.73;44.55;100873.63;2302525;76;51004;-81
2024/03/13 13:53:33;;;;;;;3.72;3.33;;;;;;;21.74;44.25;100875.80;2350822;74;51495;-81
2024/03/13 13:56:36;;;;;;;4.50;3.40;;;;;;;21.74;44.36;100874.45;2359231;74;50774;-81
2024/03/13 13:59:38;;;;;;;4.22;3.60;;;;;;;21.72;44.61;100876.52;2358710;75;50687;-81
2024/03/13 14:02:41;;;;;;;4.42;3.70;;;;;;;21.72;44.87;100875.16;2358673;75;50238;-81
2024/03/13 14:05:43;;;;;;;4.42;3.45;;;;;;;21.72;45.01;100876.52;2319242;74;50981;-82
2024/03/13 14:08:45;;;;;;;6.30;3.65;;;;;;;21.73;45.03;100866.05;2341720;74;50370;-84
2024/03/13 14:11:47;;;;;;;6.58;3.50;;;;;;;21.72;45.05;100868.44;2349861;74;50747;-82
2024/03/13 14:14:53;;;;;;;5.03;3.92;;;;;;;21.72;44.95;100868.44;2335454;74;50165;-82
2024/03/13 14:17:54;;;;;;;4.33;3.92;;;;;;;21.73;44.45;100868.73;2365779;74;22442;-82
2024/03/13 14:20:56;;;;;;;5.37;3.27;;;;;;;21.71;45.05;100862.74;2339693;76;50680;-83
2024/03/13 14:24:00;;;;;;;6.55;4.05;;;;;;;21.73;45.11;100865.55;2339817;76;50703;-82